createdAt,value
2019-05-07T00:01:34.128Z,99.40
2019-05-07T00:04:08.189Z,99.60
2019-05-07T00:06:43.453Z,99.90
2019-05-07T00:09:16.901Z,99.90
2019-05-07T00:11:50.143Z,99.90
2019-05-07T00:14:23.813Z,99.90
2019-05-07T00:16:58.656Z,99.90
2019-05-07T00:19:32.502Z,99.90
2019-05-07T00:22:06.217Z,99.90
2019-05-07T00:24:39.500Z,99.90
2019-05-07T00:27:14.070Z,99.90
2019-05-07T00:29:47.871Z,99.90
2019-05-07T00:32:22.197Z,99.90
2019-05-07T00:35:02.524Z,99.90
2019-05-07T00:37:43.156Z,99.90
2019-05-07T00:40:36.927Z,99.90
2019-05-07T00:43:16.982Z,99.90
2019-05-07T00:45:53.403Z,99.90
2019-05-07T00:48:28.365Z,99.90
2019-05-07T00:51:28.462Z,99.90
2019-05-07T00:54:03.589Z,99.90
2019-05-07T00:56:37.748Z,99.90
2019-05-07T00:59:13.082Z,99.90
2019-05-07T01:01:47.540Z,99.90
2019-05-07T01:04:23.087Z,99.90
2019-05-07T01:06:56.664Z,99.90
2019-05-07T01:09:32.404Z,99.90
2019-05-07T01:12:06.567Z,99.90
2019-05-07T01:14:41.874Z,99.90
2019-05-07T01:17:15.797Z,99.90
2019-05-07T01:19:49.396Z,99.90
2019-05-07T01:22:22.757Z,99.90
2019-05-07T01:24:57.311Z,99.90
2019-05-07T01:27:32.177Z,99.90
2019-05-07T01:30:06.731Z,99.90
2019-05-07T01:32:46.809Z,99.90
2019-05-07T01:35:44.010Z,99.90
2019-05-07T01:38:19.374Z,99.90
2019-05-07T01:40:53.196Z,99.90
2019-05-07T01:43:26.270Z,99.90
2019-05-07T01:46:02.973Z,99.90
2019-05-07T01:48:37.242Z,99.90
2019-05-07T01:51:12.995Z,99.90
2019-05-07T01:53:46.891Z,99.90
2019-05-07T01:56:22.791Z,99.90
2019-05-07T01:58:56.252Z,99.90
2019-05-07T02:01:29.279Z,99.90
2019-05-07T02:04:38.321Z,99.90
2019-05-07T02:07:30.366Z,99.90
2019-05-07T02:10:12.670Z,99.90
2019-05-07T02:12:46.031Z,99.90
2019-05-07T02:15:19.400Z,99.90
2019-05-07T02:17:53.081Z,99.90
2019-05-07T02:20:26.375Z,99.90
2019-05-07T02:22:59.488Z,99.90
2019-05-07T02:25:33.478Z,99.90
2019-05-07T02:28:06.849Z,99.90
2019-05-07T02:30:44.072Z,99.90
2019-05-07T02:33:15.832Z,99.90
2019-05-07T02:35:49.893Z,99.90
2019-05-07T02:38:52.827Z,99.90
2019-05-07T02:41:29.559Z,99.90
2019-05-07T02:44:04.178Z,99.90
2019-05-07T02:47:08.253Z,99.90
2019-05-07T02:49:53.648Z,99.90
2019-05-07T02:52:47.358Z,99.90
2019-05-07T02:55:43.451Z,99.90
2019-05-07T02:58:17.181Z,99.90
2019-05-07T03:00:52.942Z,99.90
2019-05-07T03:03:25.547Z,99.90
2019-05-07T03:05:59.005Z,99.90
2019-05-07T03:08:33.273Z,99.90
2019-05-07T03:11:07.048Z,99.90
2019-05-07T03:13:43.219Z,99.90
2019-05-07T03:16:35.329Z,99.90
2019-05-07T03:18:53.409Z,99.90
2019-05-07T03:21:28.300Z,99.90
2019-05-07T03:24:09.817Z,99.90
2019-05-07T03:26:45.793Z,99.90
2019-05-07T03:29:23.989Z,99.90
2019-05-07T03:32:06.119Z,99.90
2019-05-07T03:35:07.203Z,99.90
2019-05-07T03:37:44.188Z,99.90
2019-05-07T03:40:18.584Z,99.90
2019-05-07T03:42:53.537Z,99.90
2019-05-07T03:45:43.257Z,99.90
2019-05-07T03:48:23.715Z,99.90
2019-05-07T03:50:56.493Z,99.90
2019-05-07T03:53:30.111Z,99.90
2019-05-07T03:56:04.363Z,99.90
2019-05-07T03:58:38.585Z,99.90
2019-05-07T04:01:13.666Z,99.90
2019-05-07T04:03:47.740Z,99.90
2019-05-07T04:06:23.287Z,99.90
2019-05-07T04:08:56.161Z,99.90
2019-05-07T04:11:33.531Z,99.90
2019-05-07T04:14:06.324Z,99.90
2019-05-07T04:16:44.070Z,99.90
2019-05-07T04:19:17.776Z,99.90
2019-05-07T04:21:53.348Z,99.90
2019-05-07T04:24:48.432Z,99.90
2019-05-07T04:27:52.742Z,99.90
2019-05-07T04:30:28.091Z,99.90
2019-05-07T04:33:03.413Z,99.90
2019-05-07T04:35:43.449Z,99.90
2019-05-07T04:38:17.015Z,99.90
2019-05-07T04:40:53.799Z,99.90
2019-05-07T04:43:28.894Z,99.90
2019-05-07T04:46:03.485Z,99.90
2019-05-07T04:48:37.082Z,99.90
2019-05-07T04:51:14.215Z,99.90
2019-05-07T04:53:48.641Z,99.90
2019-05-07T04:56:24.054Z,99.90
2019-05-07T04:58:57.522Z,99.90
2019-05-07T05:01:37.536Z,99.90
2019-05-07T05:04:25.349Z,99.90
2019-05-07T05:06:52.753Z,99.90
2019-05-07T05:09:25.972Z,99.90
2019-05-07T05:12:02.579Z,99.90
2019-05-07T05:14:35.891Z,99.90
2019-05-07T05:17:09.791Z,99.90
2019-05-07T05:19:44.543Z,99.90
2019-05-07T05:22:37.849Z,99.90
2019-05-07T05:25:22.718Z,99.90
2019-05-07T05:27:58.319Z,99.90
2019-05-07T05:30:42.270Z,99.90
2019-05-07T05:33:17.577Z,99.90
2019-05-07T05:35:54.975Z,99.90
2019-05-07T05:38:29.620Z,99.90
2019-05-07T05:41:03.398Z,99.90
2019-05-07T05:43:58.698Z,99.90
2019-05-07T05:46:33.318Z,99.90
2019-05-07T05:49:07.733Z,99.90
2019-05-07T05:52:05.445Z,99.90
2019-05-07T05:54:59.907Z,99.90
2019-05-07T05:58:14.924Z,99.80
2019-05-07T06:01:13.077Z,99.00
2019-05-07T06:03:59.927Z,99.00
2019-05-07T06:07:01.174Z,99.30
2019-05-07T06:09:35.580Z,99.30
2019-05-07T06:12:38.871Z,98.70
2019-05-07T06:15:48.871Z,98.40
2019-05-07T06:19:02.028Z,98.10
2019-05-07T06:22:02.556Z,97.70
2019-05-07T06:24:58.209Z,97.40
2019-05-07T06:27:32.496Z,97.00
2019-05-07T06:30:07.014Z,96.20
2019-05-07T06:32:42.768Z,95.50
2019-05-07T06:35:15.314Z,95.00
2019-05-07T06:37:49.015Z,95.20
2019-05-07T06:40:49.028Z,94.30
2019-05-07T06:43:32.426Z,94.60
2019-05-07T06:46:06.064Z,95.00
2019-05-07T06:48:43.713Z,94.70
2019-05-07T06:51:17.180Z,93.60
2019-05-07T06:53:49.273Z,92.80
2019-05-07T06:56:23.022Z,92.40
2019-05-07T06:59:19.657Z,92.00
2019-05-07T07:02:12.774Z,92.00
2019-05-07T07:04:59.817Z,91.20
2019-05-07T07:08:03.365Z,91.20
2019-05-07T07:10:57.907Z,90.30
2019-05-07T07:13:33.891Z,88.90
2019-05-07T07:16:07.102Z,88.80
2019-05-07T07:18:51.355Z,88.90
2019-05-07T07:21:15.328Z,88.40
2019-05-07T07:23:48.862Z,88.50
2019-05-07T07:26:22.289Z,87.00
2019-05-07T07:28:56.048Z,86.00
2019-05-07T07:31:38.777Z,86.10
2019-05-07T07:34:13.835Z,85.50
2019-05-07T07:37:06.025Z,84.80
2019-05-07T07:39:36.028Z,84.40
2019-05-07T07:42:13.137Z,84.60
2019-05-07T07:44:48.456Z,85.30
2019-05-07T07:47:23.360Z,85.60
2019-05-07T07:49:57.107Z,85.60
2019-05-07T07:52:32.416Z,84.20
2019-05-07T07:55:06.327Z,82.00
2019-05-07T07:58:15.835Z,81.80
2019-05-07T08:00:56.806Z,82.00
2019-05-07T08:03:32.814Z,81.10
2019-05-07T08:06:07.737Z,79.60
2019-05-07T08:08:42.438Z,79.70
2019-05-07T08:11:17.683Z,79.70
2019-05-07T08:13:52.860Z,78.80
2019-05-07T08:16:27.530Z,79.50
2019-05-07T08:19:03.041Z,79.90
2019-05-07T08:21:37.124Z,78.90
2019-05-07T08:24:12.249Z,78.60
2019-05-07T08:26:44.429Z,78.50
2019-05-07T08:29:17.623Z,77.70
2019-05-07T08:31:59.694Z,78.10
2019-05-07T08:34:39.885Z,78.40
2019-05-07T08:37:13.750Z,78.10
2019-05-07T08:39:47.742Z,77.10
2019-05-07T08:42:22.815Z,77.20
2019-05-07T08:45:21.891Z,76.00
2019-05-07T08:47:54.397Z,74.80
2019-05-07T08:50:27.663Z,75.20
2019-05-07T08:53:02.736Z,74.80
2019-05-07T08:55:38.180Z,75.90
2019-05-07T08:58:12.037Z,74.00
2019-05-07T09:00:45.467Z,73.40
2019-05-07T09:03:38.821Z,74.00
2019-05-07T09:06:11.878Z,74.60
2019-05-07T09:08:44.825Z,75.10
2019-05-07T09:11:17.324Z,74.50
2019-05-07T09:13:50.056Z,74.50
2019-05-07T09:16:23.314Z,72.40
2019-05-07T09:18:56.450Z,71.90
2019-05-07T09:21:32.219Z,72.40
2019-05-07T09:24:05.624Z,73.50
2019-05-07T09:26:49.124Z,73.30
2019-05-07T09:29:32.357Z,72.10
2019-05-07T09:32:32.708Z,71.60
2019-05-07T09:35:08.560Z,71.20
2019-05-07T09:37:42.128Z,71.00
2019-05-07T09:40:15.528Z,71.10
2019-05-07T09:42:48.781Z,72.00
2019-05-07T09:45:22.579Z,72.60
2019-05-07T09:47:55.761Z,72.00
2019-05-07T09:50:28.389Z,71.50
2019-05-07T09:53:02.279Z,70.10
2019-05-07T09:55:35.077Z,68.70
2019-05-07T09:58:07.771Z,66.20
2019-05-07T10:00:42.443Z,64.10
2019-05-07T10:03:15.655Z,64.00
2019-05-07T10:05:48.461Z,62.20
2019-05-07T10:08:21.007Z,62.00
2019-05-07T10:10:55.106Z,61.60
2019-05-07T10:13:57.658Z,60.70
2019-05-07T10:16:54.527Z,62.20
2019-05-07T10:19:28.649Z,64.10
2019-05-07T10:22:02.392Z,65.70
2019-05-07T10:24:35.505Z,65.60
2019-05-07T10:27:09.218Z,66.60
2019-05-07T10:29:43.038Z,66.70
2019-05-07T10:32:16.384Z,67.60
2019-05-07T10:34:49.571Z,65.10
2019-05-07T10:37:23.301Z,64.00
2019-05-07T10:39:56.114Z,63.50
2019-05-07T10:42:31.908Z,62.60
2019-05-07T10:45:25.685Z,63.70
2019-05-07T10:48:24.538Z,64.30
2019-05-07T10:50:58.739Z,65.00
2019-05-07T10:53:35.160Z,67.10
2019-05-07T10:56:08.286Z,68.70
2019-05-07T10:58:41.812Z,70.00
2019-05-07T11:01:17.450Z,71.00
2019-05-07T11:03:51.745Z,71.90
2019-05-07T11:06:25.059Z,72.60
2019-05-07T11:08:59.071Z,72.70
2019-05-07T11:11:33.843Z,71.80
2019-05-07T11:14:07.195Z,71.00
2019-05-07T11:17:02.500Z,71.50
2019-05-07T11:19:35.547Z,70.90
2019-05-07T11:22:08.505Z,71.00
2019-05-07T11:24:42.734Z,71.70
2019-05-07T11:27:18.151Z,70.50
2019-05-07T11:29:52.594Z,69.80
2019-05-07T11:32:25.628Z,69.40
2019-05-07T11:34:59.371Z,69.70
2019-05-07T11:37:32.440Z,68.80
2019-05-07T11:40:06.575Z,67.80
2019-05-07T11:43:18.188Z,67.50
2019-05-07T11:45:59.250Z,67.00
2019-05-07T11:48:36.519Z,65.70
2019-05-07T11:51:23.325Z,65.70
2019-05-07T11:54:14.063Z,66.00
2019-05-07T11:56:45.756Z,66.60
2019-05-07T11:59:17.833Z,66.80
2019-05-07T12:01:54.778Z,67.20
2019-05-07T12:04:31.862Z,66.30
2019-05-07T12:07:03.684Z,66.40
2019-05-07T12:09:38.212Z,66.40
2019-05-07T12:12:12.757Z,64.30
2019-05-07T12:14:48.481Z,64.00
2019-05-07T12:17:22.358Z,64.20
2019-05-07T12:19:55.408Z,63.90
2019-05-07T12:22:48.186Z,62.60
2019-05-07T12:25:21.993Z,62.60
2019-05-07T12:27:55.483Z,62.90
2019-05-07T12:30:35.734Z,62.90
2019-05-07T12:33:18.088Z,62.70
2019-05-07T12:35:53.567Z,62.80
2019-05-07T12:38:26.385Z,63.10
2019-05-07T12:41:02.424Z,63.90
2019-05-07T12:43:35.311Z,63.70
2019-05-07T12:46:11.804Z,64.00
2019-05-07T12:48:44.093Z,63.90
2019-05-07T12:51:16.671Z,63.40
2019-05-07T12:53:54.709Z,62.10
2019-05-07T12:56:26.932Z,61.60
2019-05-07T12:58:59.486Z,58.90
2019-05-07T13:01:42.334Z,60.80
2019-05-07T13:04:17.450Z,59.30
2019-05-07T13:06:56.633Z,56.30
2019-05-07T13:09:32.392Z,55.90
2019-05-07T13:12:05.431Z,55.70
2019-05-07T13:14:39.454Z,55.00
2019-05-07T13:17:12.160Z,54.60
2019-05-07T13:19:47.929Z,53.90
2019-05-07T13:22:22.707Z,55.20
2019-05-07T13:24:56.384Z,56.40
2019-05-07T13:27:48.372Z,57.50
2019-05-07T13:30:23.520Z,57.60
2019-05-07T13:32:58.408Z,58.50
2019-05-07T13:35:29.530Z,59.50
2019-05-07T13:38:25.450Z,59.70
2019-05-07T13:41:33.310Z,60.00
2019-05-07T13:44:15.172Z,58.40
2019-05-07T13:46:49.453Z,57.50
2019-05-07T13:49:24.041Z,56.90
2019-05-07T13:52:03.427Z,57.60
2019-05-07T13:54:32.463Z,57.90
2019-05-07T13:57:05.105Z,57.50
2019-05-07T13:59:38.679Z,56.90
2019-05-07T14:02:15.370Z,56.70
2019-05-07T14:04:47.911Z,56.00
2019-05-07T14:07:21.743Z,54.90
2019-05-07T14:09:54.435Z,53.90
2019-05-07T14:12:29.278Z,54.50
2019-05-07T14:15:02.198Z,56.00
2019-05-07T14:17:34.947Z,58.50
2019-05-07T14:20:08.895Z,60.70
2019-05-07T14:22:42.475Z,62.20
2019-05-07T14:25:17.120Z,62.80
2019-05-07T14:27:49.799Z,63.50
2019-05-07T14:30:24.547Z,64.80
2019-05-07T14:33:02.369Z,64.80
2019-05-07T14:35:57.265Z,65.00
2019-05-07T14:38:37.464Z,65.30
2019-05-07T14:41:10.495Z,66.10
2019-05-07T14:43:52.314Z,66.10
2019-05-07T14:46:24.387Z,66.30
2019-05-07T14:48:57.033Z,66.30
2019-05-07T14:51:29.126Z,66.60
2019-05-07T14:54:02.188Z,66.80
2019-05-07T14:56:34.487Z,67.40
2019-05-07T14:59:08.167Z,67.20
2019-05-07T15:01:42.801Z,67.00
2019-05-07T15:04:15.112Z,66.60
2019-05-07T15:06:52.875Z,66.80
2019-05-07T15:09:24.035Z,67.00
2019-05-07T15:11:56.475Z,66.60
2019-05-07T15:14:29.251Z,66.70
2019-05-07T15:17:10.307Z,66.80
2019-05-07T15:19:44.751Z,67.10
2019-05-07T15:22:49.414Z,67.20
2019-05-07T15:25:18.037Z,66.40
2019-05-07T15:27:52.720Z,66.50
2019-05-07T15:30:29.480Z,65.90
2019-05-07T15:33:02.436Z,65.00
2019-05-07T15:35:35.446Z,64.60
2019-05-07T15:38:08.029Z,64.20
2019-05-07T15:40:42.256Z,64.00
2019-05-07T15:43:14.004Z,62.70
2019-05-07T15:45:46.965Z,61.70
2019-05-07T15:48:22.028Z,59.30
2019-05-07T15:50:54.088Z,59.30
2019-05-07T15:53:42.724Z,60.60
2019-05-07T15:56:15.346Z,59.90
2019-05-07T15:58:48.912Z,59.60
2019-05-07T16:01:22.230Z,58.90
2019-05-07T16:03:55.051Z,58.60
2019-05-07T16:06:28.038Z,58.40
2019-05-07T16:09:04.466Z,56.90
2019-05-07T16:11:36.663Z,57.20
2019-05-07T16:14:22.845Z,57.10
2019-05-07T16:16:58.762Z,57.00
2019-05-07T16:19:34.670Z,56.60
2019-05-07T16:22:14.089Z,55.50
2019-05-07T16:24:46.308Z,55.70
2019-05-07T16:27:18.119Z,55.40
2019-05-07T16:29:52.518Z,55.00
2019-05-07T16:32:24.979Z,56.00
2019-05-07T16:34:56.930Z,56.30
2019-05-07T16:37:32.117Z,56.30
2019-05-07T16:40:04.952Z,56.80
2019-05-07T16:42:42.823Z,58.30
2019-05-07T16:45:16.072Z,59.60
2019-05-07T16:47:47.926Z,60.90
2019-05-07T16:50:22.484Z,62.20
2019-05-07T16:54:49.450Z,62.90
2019-05-07T16:55:36.752Z,63.20
2019-05-07T16:58:36.484Z,62.60
2019-05-07T17:03:53.969Z,60.50
2019-05-07T17:06:26.155Z,60.90
2019-05-07T17:09:02.613Z,61.30
2019-05-07T17:11:38.032Z,61.10
2019-05-07T17:14:12.926Z,61.10
2019-05-07T17:16:48.175Z,61.60
2019-05-07T17:19:22.363Z,61.60
2019-05-07T17:21:54.447Z,61.30
2019-05-07T17:24:29.072Z,61.10
2019-05-07T17:27:02.312Z,60.60
2019-05-07T17:29:34.880Z,60.10
2019-05-07T17:32:07.448Z,58.80
2019-05-07T17:34:41.985Z,59.30
2019-05-07T17:37:14.109Z,59.40
2019-05-07T17:39:47.474Z,60.60
2019-05-07T17:42:22.017Z,61.90
2019-05-07T17:44:54.105Z,62.90
2019-05-07T17:47:26.349Z,64.10
2019-05-07T17:49:58.443Z,65.30
2019-05-07T17:52:32.371Z,65.60
2019-05-07T17:55:04.362Z,65.60
2019-05-07T17:57:38.430Z,66.10
2019-05-07T18:00:12.941Z,65.60
2019-05-07T18:03:03.944Z,66.10
2019-05-07T18:05:39.999Z,66.40
2019-05-07T18:08:14.165Z,67.20
2019-05-07T18:10:46.648Z,67.20
2019-05-07T18:13:18.714Z,67.40
2019-05-07T18:16:32.473Z,67.60
2019-05-07T18:19:06.936Z,68.50
2019-05-07T18:21:41.822Z,69.00
2019-05-07T18:24:16.808Z,68.60
2019-05-07T18:26:53.379Z,68.80
2019-05-07T18:29:48.804Z,69.20
2019-05-07T18:32:21.895Z,69.80
2019-05-07T18:34:54.322Z,71.30
2019-05-07T18:37:26.686Z,72.20
2019-05-07T18:40:02.368Z,72.90
2019-05-07T18:42:33.626Z,73.30
2019-05-07T18:45:07.194Z,73.80
2019-05-07T18:47:40.909Z,74.20
2019-05-07T18:50:15.063Z,74.90
2019-05-07T18:52:48.761Z,75.60
2019-05-07T18:55:22.700Z,76.00
2019-05-07T18:57:58.913Z,76.50
2019-05-07T19:00:34.938Z,77.10
2019-05-07T19:03:08.604Z,77.90
2019-05-07T19:05:43.351Z,78.50
2019-05-07T19:08:16.716Z,79.20
2019-05-07T19:10:49.049Z,80.40
2019-05-07T19:13:22.194Z,81.60
2019-05-07T19:15:56.702Z,82.30
2019-05-07T19:18:32.040Z,83.40
2019-05-07T19:21:06.822Z,84.00
2019-05-07T19:23:39.011Z,84.80
2019-05-07T19:26:13.016Z,85.50
2019-05-07T19:28:46.996Z,87.70
2019-05-07T19:31:23.346Z,87.80
2019-05-07T19:33:56.854Z,88.10
2019-05-07T19:36:32.122Z,89.20
2019-05-07T19:39:07.260Z,88.80
2019-05-07T19:41:44.344Z,88.90
2019-05-07T19:44:17.828Z,89.30
2019-05-07T19:46:52.424Z,89.80
2019-05-07T19:49:27.773Z,90.20
2019-05-07T19:52:01.835Z,90.40
2019-05-07T19:54:37.881Z,91.00
2019-05-07T19:57:15.529Z,91.30
2019-05-07T19:59:48.027Z,91.50
2019-05-07T20:02:27.161Z,91.60
2019-05-07T20:05:03.316Z,92.00
2019-05-07T20:07:36.138Z,92.30
2019-05-07T20:10:12.002Z,92.80
2019-05-07T20:12:46.804Z,93.00
2019-05-07T20:15:22.402Z,93.60
2019-05-07T20:17:59.815Z,93.60
2019-05-07T20:20:37.275Z,93.50
2019-05-07T20:23:13.758Z,93.50
2019-05-07T20:25:48.244Z,93.70
2019-05-07T20:28:21.828Z,93.80
2019-05-07T20:30:59.521Z,94.20
2019-05-07T20:34:16.621Z,94.20
2019-05-07T20:37:02.004Z,94.30
2019-05-07T20:39:38.855Z,94.30
2019-05-07T20:42:18.460Z,94.80
2019-05-07T20:44:57.041Z,95.00
2019-05-07T20:47:32.659Z,95.20
2019-05-07T20:50:09.791Z,95.50
2019-05-07T20:53:06.366Z,95.40
2019-05-07T20:55:52.996Z,95.70
2019-05-07T20:58:27.056Z,95.80
2019-05-07T21:01:02.914Z,95.30
2019-05-07T21:03:44.893Z,95.50
2019-05-07T21:06:29.439Z,95.60
2019-05-07T21:09:04.457Z,95.60
2019-05-07T21:11:39.145Z,96.00
2019-05-07T21:14:22.746Z,96.20
2019-05-07T21:17:04.177Z,96.30
2019-05-07T21:19:38.743Z,96.30
2019-05-07T21:22:13.159Z,96.30
2019-05-07T21:24:46.940Z,96.70
2019-05-07T21:27:20.290Z,97.30
2019-05-07T21:29:54.827Z,97.10
2019-05-07T21:32:28.378Z,97.20
2019-05-07T21:35:02.250Z,97.10
2019-05-07T21:37:35.587Z,97.10
2019-05-07T21:40:10.360Z,97.00
2019-05-07T21:42:45.318Z,96.90
2019-05-07T21:45:18.717Z,96.80
2019-05-07T21:47:54.490Z,96.80
2019-05-07T21:50:27.466Z,96.80
2019-05-07T21:53:04.271Z,96.80
2019-05-07T21:56:01.469Z,97.00
2019-05-07T21:58:36.959Z,97.40
2019-05-07T22:01:35.540Z,97.70
2019-05-07T22:04:08.251Z,98.00
2019-05-07T22:06:45.582Z,98.20
2019-05-07T22:09:18.372Z,98.20
2019-05-07T22:11:53.968Z,98.00
2019-05-07T22:14:26.432Z,98.00
2019-05-07T22:16:58.970Z,97.90
2019-05-07T22:19:33.652Z,97.80
2019-05-07T22:22:05.714Z,97.80
2019-05-07T22:24:37.971Z,97.60
2019-05-07T22:27:13.071Z,97.50
2019-05-07T22:29:46.476Z,97.40
2019-05-07T22:32:45.968Z,97.30
2019-05-07T22:35:26.721Z,97.30
2019-05-07T22:38:18.392Z,97.30
2019-05-07T22:40:53.831Z,97.20
2019-05-07T22:43:31.815Z,97.00
2019-05-07T22:46:07.283Z,96.90
2019-05-07T22:48:42.023Z,96.50
2019-05-07T22:51:15.126Z,96.40
2019-05-07T22:53:47.839Z,96.50
2019-05-07T22:56:31.962Z,96.50
2019-05-07T22:58:54.865Z,96.30
2019-05-07T23:01:26.968Z,96.20
2019-05-07T23:03:59.644Z,96.00
2019-05-07T23:06:33.536Z,95.90
2019-05-07T23:09:06.474Z,95.80
2019-05-07T23:11:42.170Z,95.60
2019-05-07T23:14:14.394Z,95.60
2019-05-07T23:16:47.463Z,95.80
2019-05-07T23:19:21.834Z,95.90
2019-05-07T23:21:53.861Z,95.60
2019-05-07T23:24:26.796Z,95.50
2019-05-07T23:26:59.275Z,95.40
2019-05-07T23:29:33.046Z,95.10
2019-05-07T23:32:05.895Z,94.60
2019-05-07T23:34:38.267Z,94.20
2019-05-07T23:37:11.803Z,93.70
2019-05-07T23:39:45.613Z,93.50
2019-05-07T23:42:21.903Z,93.30
2019-05-07T23:44:57.713Z,93.20
2019-05-07T23:47:31.731Z,93.40
2019-05-07T23:50:03.203Z,93.40
2019-05-07T23:52:35.598Z,93.50
2019-05-07T23:55:08.298Z,93.50
2019-05-07T23:57:42.887Z,93.40
